KPBG/PBG METAR and TAF weather

Enter ICAO airport designator
Station Type Date Time Source
KPBG METAR 2020/03/28 13:53 UTC NOAA

KPBG 281353Z AUTO 13003KT 10SM CLR 02/M03 A3016 RMK AO2 SLP217 T00221028


Station Type Date Time Source
KPBG Decoded METAR 2020/03/28 13:53 UTC NOAA

PLATTSBURGH INTERNATIONAL AIRPORT, NY, United States (KPBG) 44-39N 073-28W
Mar 28, 2020 - 09:53 AM EDT / 2020.03.28 1353 UTC
Wind: from the SE (130 degrees) at 3 MPH (3 KT):0
Visibility: 10 mile(s):0
Sky conditions: clear
Temperature: 36.0 F (2.2 C)
Dew Point: 27.0 F (-2.8 C)
Relative Humidity: 69%
Pressure (altimeter): 30.16 in. Hg (1021 hPa)
ob: KPBG 281353Z AUTO 13003KT 10SM CLR 02/M03 A3016 RMK AO2 SLP217 T00221028
cycle: 14

Station Type Date Time Source
KPBG TAF 2020/03/28 12:24 UTC NOAA

TAF KPBG 281120Z 2812/2912 VRB03KT P6SM FEW120
FM290700 VRB04KT P6SM VCSH OVC045
FM290900 15006KT 4SM -RA BR OVC027

Example: see airport list